Yuma MCAS,Yuma International Airport Yuma US
ICAO: KNYL
IATA: YUM
Category: Medium
Scheduled Services: Yes

Elevation: 213 ft
TransAlt. 18000 ft.

Airport Communications:
APP:124.7
ATIS:118.8
CLNC DEL:118
DEP:125.55
GND:121.9
VFR ADVSY SVC:124.7
PMSV METRO:120.7
COMD POST:33.79
SAN DIEGO RDO:122.6
PRESCOTT RDO:122.2
TWR:119.3
CTAF/UNICOM:119.3

KNYL Zoom In..

If you have problems with the map follow the link
https://www.worldairports.se/pages/airport.php?
ICAO=KNYL

Runways:

(A) RW 03L length 13300 ft width 200 ft
---- / hdg 31

(B) RW 03R length 9239 ft width 150 ft
---- / hdg 31

(C) RW 08 length 6146 ft width 150 ft
---- / hdg 76

(D) RW 17 length 5710 ft width 150 ft
---- / hdg 166

(E) RW 21L length 9239 ft width 150 ft
---- / hdg 211

(F) RW 21R length 13300 ft width 200 ft
ILS 108.30 / hdg 211

(G) RW 26 length 6146 ft width 150 ft
---- / hdg 256

(H) RW 35 length 5710 ft width 150 ft
---- / hdg 346

Location; KNYL
Day. 12 / Time. 07.57 Zulu
* Altimeter: 30.17
* Temperature: 10° c. 50°f.
* Wind from: 000° Speed 00 kn.
Dewpoint: 06° c.
Visibility: 10 Statute Miles.
Clouds: Clear (automated report).

KNYL 120757Z AUTO 00000KT 10SM CLR 10/06 A3017 RMK AO2 SLP216 T01000056 $


Wind - Calm.

 
 
jpsmedia worldairports.se 2019   terms of use